Time;durP1;ratioP1;P1;durP2;ratioP2;P2;SDS_P1;SDS_P2;PMS_P1;PMS_P2;Temp;Humidity;BMP_temperature;BMP_pressure;BME280_temperature;BME280_humidity;BME280_pressure;Samples;Min_cycle;Max_cycle;Signal;HPM_P1;HPM_P2
2023/10/02 00:01:23;;;;;;;17.80;8.70;;;18.20;76.90;;;;;;4971040;28;20281;-80
2023/10/02 00:04:16;;;;;;;17.05;8.32;;;18.20;76.90;;;;;;4970905;28;20058;-80
2023/10/02 00:06:37;;;;;;;18.10;8.52;;;18.20;76.90;;;;;;4970470;28;20051;-81
2023/10/02 00:09:04;;;;;;;20.17;8.75;;;18.10;77.00;;;;;;4955096;28;20047;-81
2023/10/02 00:11:35;;;;;;;20.13;8.97;;;18.10;76.90;;;;;;4971419;28;20054;-81
2023/10/02 00:14:20;;;;;;;17.40;8.13;;;18.10;77.00;;;;;;4971514;28;20769;-80
2023/10/02 00:17:03;;;;;;;19.08;8.63;;;18.10;76.90;;;;;;4955186;28;20043;-81
2023/10/02 00:19:35;;;;;;;17.23;7.60;;;18.10;76.90;;;;;;4971101;28;20122;-81
2023/10/02 00:22:07;;;;;;;18.67;8.88;;;18.10;76.90;;;;;;4986520;28;20059;-81
2023/10/02 00:24:39;;;;;;;18.87;8.83;;;18.10;76.80;;;;;;4961799;28;20510;-81
2023/10/02 00:27:09;;;;;;;21.70;9.38;;;18.10;76.80;;;;;;4950816;28;20739;-81
2023/10/02 00:29:51;;;;;;;19.20;9.43;;;18.10;77.00;;;;;;4950151;28;20530;-80
2023/10/02 00:32:19;;;;;;;17.50;8.43;;;18.10;76.90;;;;;;4949833;28;20190;-81
2023/10/02 00:34:46;;;;;;;19.25;8.60;;;18.10;77.10;;;;;;4949312;28;20047;-81
2023/10/02 00:37:13;;;;;;;17.33;8.13;;;18.10;77.10;;;;;;4934369;28;20247;-81
2023/10/02 00:39:47;;;;;;;18.13;8.88;;;18.00;77.20;;;;;;4949690;28;20244;-81
2023/10/02 00:42:25;;;;;;;16.73;7.78;;;18.00;77.20;;;;;;4950275;28;20052;-81
2023/10/02 00:44:54;;;;;;;18.02;7.82;;;18.00;77.10;;;;;;4951217;28;20055;-81
2023/10/02 00:47:47;;;;;;;16.38;7.70;;;18.00;76.90;;;;;;4969370;28;20062;-81
2023/10/02 00:50:19;;;;;;;16.70;8.23;;;18.00;76.90;;;;;;4935445;28;20051;-80
2023/10/02 00:52:58;;;;;;;16.08;7.45;;;18.00;76.80;;;;;;4974350;28;20941;-81
2023/10/02 00:55:26;;;;;;;17.27;8.05;;;18.00;76.80;;;;;;4956820;28;20653;-81
2023/10/02 00:57:57;;;;;;;17.83;8.05;;;18.00;76.80;;;;;;4956962;28;20055;-80
2023/10/02 01:00:35;;;;;;;17.30;7.85;;;18.00;77.30;;;;;;4957458;28;21100;-81
2023/10/02 01:03:04;;;;;;;19.77;8.30;;;18.00;77.50;;;;;;4941044;28;20055;-81
2023/10/02 01:05:42;;;;;;;17.42;8.32;;;18.00;77.70;;;;;;4972759;28;20271;-81
2023/10/02 01:08:23;;;;;;;19.63;8.90;;;18.00;77.80;;;;;;4959359;28;20050;-81
2023/10/02 01:10:56;;;;;;;17.52;7.97;;;18.00;77.90;;;;;;4969112;28;20055;-81
2023/10/02 01:13:28;;;;;;;21.10;9.32;;;18.00;78.00;;;;;;4969579;28;20078;-81
2023/10/02 01:15:56;;;;;;;19.93;9.30;;;18.00;78.10;;;;;;4952052;28;20524;-82
2023/10/02 01:18:27;;;;;;;21.35;9.80;;;18.00;78.20;;;;;;4960569;28;20259;-82
2023/10/02 01:20:56;;;;;;;23.20;10.68;;;18.00;78.20;;;;;;4965626;28;20047;-81
2023/10/02 01:23:26;;;;;;;22.48;10.27;;;18.00;78.30;;;;;;4973348;28;20514;-81
2023/10/02 01:25:57;;;;;;;20.58;9.82;;;18.00;78.30;;;;;;4957355;28;20059;-81
2023/10/02 01:28:29;;;;;;;21.37;10.43;;;18.00;78.50;;;;;;4960741;28;20047;-81
2023/10/02 01:30:56;;;;;;;21.98;10.30;;;18.00;78.50;;;;;;4956928;28;20319;-81
2023/10/02 01:33:26;;;;;;;20.92;10.30;;;18.00;78.50;;;;;;4976722;28;20137;-81
2023/10/02 01:35:56;;;;;;;22.42;10.40;;;18.00;78.60;;;;;;4994342;28;20437;-81
2023/10/02 01:38:29;;;;;;;25.20;10.63;;;18.00;78.70;;;;;;4976854;28;20057;-81
2023/10/02 01:41:04;;;;;;;22.30;9.90;;;18.00;78.80;;;;;;4976498;28;20051;-81
2023/10/02 01:43:36;;;;;;;23.17;10.98;;;18.00;78.80;;;;;;4992762;28;20744;-81
2023/10/02 01:46:03;;;;;;;22.17;10.23;;;18.00;78.90;;;;;;4992913;28;20511;-81
2023/10/02 01:48:40;;;;;;;25.38;11.63;;;18.00;78.80;;;;;;4976750;28;20047;-81
2023/10/02 01:51:21;;;;;;;23.67;11.05;;;17.90;79.00;;;;;;4976381;28;20102;-81
2023/10/02 01:53:54;;;;;;;24.03;10.93;;;17.90;79.10;;;;;;4976148;28;20051;-80
2023/10/02 01:56:24;;;;;;;22.60;10.02;;;17.90;79.20;;;;;;4976070;28;20261;-81
2023/10/02 01:58:52;;;;;;;22.58;10.18;;;18.00;79.20;;;;;;4975865;28;20054;-81
2023/10/02 02:01:21;;;;;;;21.20;10.45;;;17.90;79.10;;;;;;4959244;28;20096;-81
2023/10/02 02:03:49;;;;;;;27.40;10.73;;;17.90;79.20;;;;;;4955615;28;20043;-81
2023/10/02 02:06:20;;;;;;;23.07;10.87;;;17.90;79.30;;;;;;4973544;28;20259;-81
2023/10/02 02:08:53;;;;;;;21.48;10.65;;;17.90;79.40;;;;;;4988999;28;20262;-81
2023/10/02 02:11:24;;;;;;;22.08;10.45;;;17.90;79.40;;;;;;4972701;28;20059;-81
2023/10/02 02:13:52;;;;;;;20.83;9.98;;;17.90;79.50;;;;;;4956314;28;20058;-81
2023/10/02 02:16:26;;;;;;;21.98;10.98;;;17.90;79.50;;;;;;4989975;28;20051;-81
2023/10/02 02:18:56;;;;;;;23.37;10.67;;;17.90;79.70;;;;;;4956462;28;20627;-81
2023/10/02 02:21:25;;;;;;;20.33;10.50;;;17.90;79.70;;;;;;4973057;28;20355;-81
2023/10/02 02:24:03;;;;;;;22.75;11.00;;;17.90;79.70;;;;;;4972709;28;20573;-82
2023/10/02 02:26:33;;;;;;;21.63;10.55;;;18.00;79.80;;;;;;4990541;28;20542;-81
2023/10/02 02:29:01;;;;;;;20.50;10.35;;;17.90;79.80;;;;;;4972533;28;20607;-81
2023/10/02 02:31:31;;;;;;;27.17;10.83;;;17.90;79.70;;;;;;4972516;28;20612;-81
2023/10/02 02:34:01;;;;;;;19.38;10.00;;;17.90;79.90;;;;;;4990120;28;20279;-81
2023/10/02 02:36:34;;;;;;;25.27;10.65;;;17.90;80.00;;;;;;4972320;28;20113;-81
2023/10/02 02:39:15;;;;;;;21.17;10.00;;;17.90;80.00;;;;;;4972464;28;20049;-81
2023/10/02 02:45:31;;;;;;;22.97;10.57;;;17.90;80.00;;;;;;4953620;28;20249;-81
2023/10/02 02:48:10;;;;;;;20.88;9.38;;;17.90;79.90;;;;;;4971527;28;20353;-82
2023/10/02 02:50:41;;;;;;;21.52;9.70;;;17.90;80.00;;;;;;4973091;28;20061;-81
2023/10/02 02:53:22;;;;;;;20.15;10.18;;;17.80;80.00;;;;;;4956379;28;20053;-81
2023/10/02 02:56:10;;;;;;;20.35;9.90;;;17.80;80.00;;;;;;4972224;28;20684;-81
2023/10/02 02:58:39;;;;;;;25.80;10.30;;;17.80;80.00;;;;;;4956341;28;20510;-81
2023/10/02 03:01:12;;;;;;;18.98;9.55;;;17.80;80.10;;;;;;4972405;28;20923;-81
2023/10/02 03:03:41;;;;;;;20.83;9.57;;;17.80;80.10;;;;;;4972034;28;20054;-81
2023/10/02 03:06:16;;;;;;;23.55;10.43;;;17.80;80.10;;;;;;4971891;28;21082;-81
2023/10/02 03:08:44;;;;;;;20.95;9.48;;;17.80;80.20;;;;;;4972068;28;20151;-81
2023/10/02 03:11:11;;;;;;;22.17;10.13;;;17.80;80.20;;;;;;4972074;28;20811;-81
2023/10/02 03:13:40;;;;;;;21.52;10.10;;;17.80;80.20;;;;;;4971665;28;20258;-81
2023/10/02 03:16:16;;;;;;;21.48;10.23;;;17.80;80.30;;;;;;4972078;28;20057;-81
2023/10/02 03:18:48;;;;;;;19.70;9.30;;;17.80;80.40;;;;;;4971847;28;20502;-81
2023/10/02 03:21:30;;;;;;;23.52;9.63;;;17.80;80.30;;;;;;4972011;28;20137;-81
2023/10/02 03:27:17;;;;;;;20.67;9.82;;;17.80;80.40;;;;;;4967335;28;20293;-82
2023/10/02 03:29:45;;;;;;;21.45;9.90;;;17.80;80.40;;;;;;4971604;28;20062;-81
2023/10/02 03:32:12;;;;;;;23.48;11.02;;;17.80;80.40;;;;;;4971755;28;20054;-81
2023/10/02 03:34:48;;;;;;;22.40;9.95;;;17.80;80.40;;;;;;4971795;28;20079;-81
2023/10/02 03:37:21;;;;;;;21.30;10.23;;;17.70;80.40;;;;;;4971503;28;20134;-81
2023/10/02 03:40:00;;;;;;;21.27;9.98;;;17.70;80.40;;;;;;4972118;28;20266;-81
2023/10/02 03:42:30;;;;;;;21.23;10.00;;;17.70;80.40;;;;;;4971857;28;20165;-81
2023/10/02 03:45:01;;;;;;;21.20;10.38;;;17.70;80.40;;;;;;4971383;28;20055;-81
2023/10/02 03:47:30;;;;;;;21.42;10.68;;;17.70;80.40;;;;;;4971467;28;20050;-82
2023/10/02 03:50:01;;;;;;;21.70;11.03;;;17.70;80.40;;;;;;4971390;28;20055;-81
2023/10/02 03:52:30;;;;;;;22.42;10.32;;;17.60;80.40;;;;;;4971659;28;20281;-81
2023/10/02 03:54:57;;;;;;;19.80;9.98;;;17.60;80.40;;;;;;4971223;28;20078;-81
2023/10/02 03:57:49;;;;;;;22.80;10.57;;;17.60;80.50;;;;;;4971001;28;20716;-81
2023/10/02 04:00:21;;;;;;;22.77;11.18;;;17.60;80.50;;;;;;4971278;28;20126;-80
2023/10/02 04:02:50;;;;;;;20.87;10.60;;;17.60;80.40;;;;;;4987247;28;20515;-81
2023/10/02 04:05:32;;;;;;;27.40;11.13;;;17.50;80.50;;;;;;4970923;28;20275;-81
2023/10/02 04:08:13;;;;;;;23.77;10.27;;;17.50;80.50;;;;;;4971864;28;20071;-81
2023/10/02 04:10:55;;;;;;;22.88;10.35;;;17.50;80.50;;;;;;4970889;28;20058;-81
2023/10/02 04:13:24;;;;;;;23.67;11.40;;;17.50;80.50;;;;;;4971092;28;20520;-81
2023/10/02 04:16:16;;;;;;;24.97;11.57;;;17.50;80.60;;;;;;4970911;28;20242;-81
2023/10/02 04:18:46;;;;;;;22.35;10.90;;;17.50;80.70;;;;;;4987297;28;20266;-80
2023/10/02 04:21:14;;;;;;;24.08;10.68;;;17.50;80.70;;;;;;4970801;28;20067;-81
2023/10/02 04:23:42;;;;;;;21.88;10.15;;;17.40;80.70;;;;;;4970988;28;20055;-81
2023/10/02 04:26:19;;;;;;;24.95;11.18;;;17.40;80.70;;;;;;4969923;28;20394;-81
2023/10/02 04:28:54;;;;;;;24.43;9.83;;;17.40;80.90;;;;;;4971399;28;20501;-81
2023/10/02 04:31:27;;;;;;;24.10;10.48;;;17.40;81.00;;;;;;4970873;28;20258;-81
2023/10/02 04:34:15;;;;;;;23.00;9.77;;;17.40;81.00;;;;;;4969834;28;20086;-81
2023/10/02 04:36:42;;;;;;;25.20;11.07;;;17.40;81.00;;;;;;4987024;28;20425;-81
2023/10/02 04:39:51;;;;;;;21.38;9.93;;;17.30;81.10;;;;;;4969319;28;20552;-81
2023/10/02 04:42:11;;;;;;;23.17;10.07;;;17.20;81.10;;;;;;4952994;28;20379;-81
2023/10/02 04:44:44;;;;;;;24.25;10.77;;;17.20;81.20;;;;;;4953456;28;20286;-81
2023/10/02 04:47:17;;;;;;;23.20;10.80;;;17.20;81.40;;;;;;4968981;28;20122;-81
2023/10/02 04:52:57;;;;;;;20.75;10.18;;;17.20;81.40;;;;;;4969567;28;20046;-81
2023/10/02 04:55:31;;;;;;;22.27;10.90;;;17.20;81.40;;;;;;4970004;28;20565;-81
2023/10/02 04:58:04;;;;;;;22.10;9.65;;;17.10;81.60;;;;;;4968769;28;20346;-82
2023/10/02 05:00:35;;;;;;;21.88;10.43;;;17.10;81.60;;;;;;4967531;28;20047;-81
2023/10/02 05:03:18;;;;;;;24.52;10.55;;;17.00;81.70;;;;;;4954564;28;20985;-80
2023/10/02 05:05:49;;;;;;;21.27;9.85;;;17.00;81.70;;;;;;4955548;28;20059;-80
2023/10/02 05:08:20;;;;;;;21.07;9.90;;;17.00;81.80;;;;;;4969273;28;20058;-80
2023/10/02 05:10:49;;;;;;;21.92;10.18;;;17.00;81.80;;;;;;4967687;28;20283;-81
2023/10/02 05:16:11;;;;;;;22.73;10.23;;;16.90;82.20;;;;;;4950180;28;20063;-81
2023/10/02 05:18:44;;;;;;;22.08;9.65;;;16.90;82.00;;;;;;4967942;28;20055;-81
2023/10/02 05:21:16;;;;;;;22.97;10.30;;;16.90;82.10;;;;;;4949402;28;20142;-81
2023/10/02 05:23:43;;;;;;;19.83;9.60;;;16.80;82.20;;;;;;4949174;28;20255;-82
2023/10/02 05:26:29;;;;;;;22.75;10.52;;;16.90;82.20;;;;;;4965595;28;20163;-81
2023/10/02 05:29:00;;;;;;;21.42;10.55;;;16.80;82.20;;;;;;4986081;28;20058;-82
2023/10/02 05:31:28;;;;;;;22.25;9.55;;;16.80;82.30;;;;;;4986064;28;20051;-84
2023/10/02 05:33:58;;;;;;;22.17;9.90;;;16.80;82.40;;;;;;4984434;28;20133;-82
2023/10/02 05:36:28;;;;;;;27.02;10.55;;;16.80;82.40;;;;;;4968844;28;20290;-82
2023/10/02 05:39:28;;;;;;;24.02;10.85;;;16.80;82.40;;;;;;4971702;28;20055;-83
2023/10/02 05:42:05;;;;;;;22.88;9.75;;;16.80;82.40;;;;;;4971879;28;20396;-84
2023/10/02 05:44:33;;;;;;;21.67;9.57;;;16.80;82.60;;;;;;4971796;28;20047;-84
2023/10/02 05:47:05;;;;;;;23.20;10.40;;;16.80;82.60;;;;;;4973392;28;20090;-83
2023/10/02 05:49:37;;;;;;;23.20;10.63;;;16.70;82.40;;;;;;4973339;28;20265;-83
2023/10/02 05:52:07;;;;;;;19.73;9.48;;;16.70;82.70;;;;;;4962520;28;20043;-81
2023/10/02 05:54:36;;;;;;;24.10;10.05;;;16.70;82.70;;;;;;4953340;28;20125;-81
2023/10/02 05:57:12;;;;;;;23.33;10.65;;;16.70;82.80;;;;;;4969949;28;20051;-81
2023/10/02 05:59:45;;;;;;;24.27;10.30;;;16.60;82.80;;;;;;4985713;28;20635;-81
2023/10/02 06:02:13;;;;;;;20.15;9.77;;;16.70;82.80;;;;;;4961151;28;20301;-82
2023/10/02 06:04:47;;;;;;;22.60;9.88;;;16.60;82.90;;;;;;4969774;28;20058;-85
2023/10/02 06:07:19;;;;;;;22.73;9.85;;;16.60;82.90;;;;;;4973029;28;20055;-82
2023/10/02 06:09:48;;;;;;;25.08;10.32;;;16.60;82.90;;;;;;4970233;28;20377;-86
2023/10/02 06:12:18;;;;;;;24.30;10.60;;;16.60;83.00;;;;;;4949860;28;20146;-87
2023/10/02 06:14:48;;;;;;;22.58;9.98;;;16.60;83.00;;;;;;4963584;28;20346;-89
2023/10/02 06:17:16;;;;;;;21.30;9.75;;;16.60;83.20;;;;;;4936119;28;20066;-84
2023/10/02 06:19:45;;;;;;;21.92;10.52;;;16.60;83.20;;;;;;4951335;28;20064;-84
2023/10/02 06:22:14;;;;;;;20.10;9.48;;;16.60;83.40;;;;;;4950990;28;20051;-84
2023/10/02 06:24:42;;;;;;;20.73;9.50;;;16.60;83.40;;;;;;4960769;28;20066;-85
2023/10/02 06:27:14;;;;;;;22.42;10.50;;;16.60;83.30;;;;;;4971465;28;20285;-86
2023/10/02 06:29:47;;;;;;;22.58;10.20;;;16.60;83.30;;;;;;4971341;28;20061;-85
2023/10/02 06:32:19;;;;;;;20.38;9.93;;;16.60;83.50;;;;;;4973280;28;20473;-85
2023/10/02 06:34:50;;;;;;;21.65;10.38;;;16.60;83.40;;;;;;4965286;28;20145;-84
2023/10/02 06:37:19;;;;;;;21.07;10.47;;;16.60;83.50;;;;;;4964836;28;20058;-83
2023/10/02 06:40:02;;;;;;;23.60;10.90;;;16.60;83.60;;;;;;4986002;28;20812;-84
2023/10/02 06:42:30;;;;;;;24.02;10.10;;;16.60;83.60;;;;;;4955181;28;20561;-86
2023/10/02 06:45:01;;;;;;;22.85;10.48;;;16.60;83.70;;;;;;4956402;28;20079;-84
2023/10/02 06:47:30;;;;;;;22.27;10.43;;;16.60;83.80;;;;;;4953800;28;20107;-83
2023/10/02 06:50:03;;;;;;;22.27;10.37;;;16.60;83.90;;;;;;4953684;28;20641;-88
2023/10/02 06:52:32;;;;;;;22.77;10.52;;;16.60;83.90;;;;;;4937474;28;20283;-86
2023/10/02 06:55:01;;;;;;;23.08;10.63;;;16.70;84.00;;;;;;4967747;28;20059;-86
2023/10/02 06:57:28;;;;;;;24.42;10.73;;;16.70;84.00;;;;;;4953367;28;20055;-84
2023/10/02 06:59:56;;;;;;;22.52;10.75;;;16.60;84.00;;;;;;4972322;28;20465;-86
2023/10/02 07:02:25;;;;;;;22.37;10.90;;;16.60;84.00;;;;;;4985486;28;20055;-87
2023/10/02 07:04:53;;;;;;;22.77;10.45;;;16.70;84.10;;;;;;4970423;28;20259;-84
2023/10/02 07:07:25;;;;;;;23.02;9.95;;;16.70;84.00;;;;;;4948329;28;20703;-84
2023/10/02 07:09:54;;;;;;;20.83;10.13;;;16.70;84.10;;;;;;4952593;28;20063;-83
2023/10/02 07:12:21;;;;;;;21.70;10.02;;;16.70;84.10;;;;;;4985034;28;20098;-82
2023/10/02 07:14:49;;;;;;;23.70;10.57;;;16.70;84.20;;;;;;4968606;28;20047;-87
2023/10/02 07:17:23;;;;;;;21.38;10.05;;;16.70;84.30;;;;;;4948218;28;20742;-86
2023/10/02 07:19:51;;;;;;;22.00;10.18;;;16.70;84.30;;;;;;4984911;28;20066;-82
2023/10/02 07:22:18;;;;;;;23.98;11.18;;;16.80;84.40;;;;;;4975290;28;20536;-85
2023/10/02 07:24:48;;;;;;;22.25;11.10;;;16.80;84.40;;;;;;4953083;28;20057;-82
2023/10/02 07:27:25;;;;;;;21.13;10.23;;;16.80;84.60;;;;;;4965049;28;20194;-83
2023/10/02 07:29:54;;;;;;;23.88;10.88;;;16.80;84.70;;;;;;4958974;28;20252;-85
2023/10/02 07:32:22;;;;;;;20.17;10.15;;;16.80;84.70;;;;;;4983952;28;20051;-87
2023/10/02 07:34:51;;;;;;;21.73;9.50;;;16.90;84.80;;;;;;4966983;28;20057;-87
2023/10/02 07:37:22;;;;;;;21.55;9.40;;;16.90;84.80;;;;;;4967192;28;20146;-86
2023/10/02 07:39:57;;;;;;;24.20;11.10;;;16.90;85.00;;;;;;4960604;28;20058;-86
2023/10/02 07:42:32;;;;;;;25.17;10.52;;;16.90;85.10;;;;;;4967593;28;20288;-89
2023/10/02 07:45:12;;;;;;;23.73;10.50;;;17.00;85.20;;;;;;4967691;28;20051;-88
2023/10/02 07:48:07;;;;;;;23.75;10.70;;;17.00;85.20;;;;;;4954054;28;20053;-87
2023/10/02 07:50:34;;;;;;;22.25;10.13;;;17.00;85.30;;;;;;4950773;28;20051;-90
2023/10/02 07:53:04;;;;;;;21.87;10.73;;;17.00;85.30;;;;;;4967395;28;20042;-89
2023/10/02 07:55:39;;;;;;;22.95;10.32;;;17.10;85.40;;;;;;4964820;28;20740;-89
2023/10/02 07:58:08;;;;;;;25.83;10.93;;;17.20;85.40;;;;;;4977981;28;20086;-89
2023/10/02 08:00:40;;;;;;;23.13;10.63;;;17.20;85.40;;;;;;4950255;28;20043;-91
2023/10/02 08:05:56;;;;;;;25.03;10.90;;;17.20;85.30;;;;;;4951255;28;20054;-89
2023/10/02 08:08:26;;;;;;;22.17;10.07;;;17.30;85.20;;;;;;4971037;28;20275;-90
2023/10/02 08:10:55;;;;;;;24.50;10.57;;;17.40;85.10;;;;;;4965538;28;20057;-90
2023/10/02 08:13:32;;;;;;;25.75;11.60;;;17.40;85.10;;;;;;4971802;28;20054;-89
2023/10/02 08:16:02;;;;;;;24.52;11.00;;;17.40;85.20;;;;;;4967586;28;20243;-89
2023/10/02 08:18:30;;;;;;;25.30;11.17;;;17.50;85.10;;;;;;4990610;28;21052;-90
2023/10/02 08:21:01;;;;;;;26.52;11.90;;;17.50;85.10;;;;;;4974907;28;20259;-89
2023/10/02 08:23:33;;;;;;;22.65;10.50;;;17.50;84.90;;;;;;4952505;28;20150;-88
2023/10/02 08:26:02;;;;;;;22.48;10.82;;;17.60;84.80;;;;;;4952329;28;20083;-88
2023/10/02 08:28:30;;;;;;;24.02;11.20;;;17.60;84.80;;;;;;4970731;28;20143;-88
2023/10/02 08:31:03;;;;;;;24.30;11.53;;;17.70;84.70;;;;;;4973261;28;20052;-88
2023/10/02 08:33:32;;;;;;;28.10;11.52;;;17.70;84.70;;;;;;4968069;28;20322;-87
2023/10/02 08:36:01;;;;;;;24.23;11.68;;;17.80;84.60;;;;;;4964861;28;20047;-89
2023/10/02 08:38:28;;;;;;;23.35;10.80;;;17.80;84.70;;;;;;4969888;28;20121;-90
2023/10/02 08:41:22;;;;;;;24.85;10.82;;;17.80;84.60;;;;;;4972755;28;20513;-87
2023/10/02 08:43:50;;;;;;;26.27;11.50;;;17.90;84.50;;;;;;4956237;28;20055;-87
2023/10/02 08:46:21;;;;;;;25.83;11.70;;;18.00;84.50;;;;;;4956582;28;20255;-91
2023/10/02 08:48:54;;;;;;;29.35;12.77;;;18.00;84.40;;;;;;4974854;28;20094;-89
2023/10/02 08:51:29;;;;;;;24.80;11.32;;;18.00;84.40;;;;;;4965596;28;20066;-90
2023/10/02 08:53:57;;;;;;;24.98;11.57;;;18.00;84.30;;;;;;4955931;28;20051;-90
2023/10/02 08:56:40;;;;;;;24.73;11.40;;;18.10;84.40;;;;;;4943475;28;20059;-89
2023/10/02 08:59:26;;;;;;;23.52;11.43;;;18.10;84.30;;;;;;4970643;28;20256;-88
2023/10/02 09:02:08;;;;;;;25.80;11.45;;;18.20;84.40;;;;;;4980574;28;20071;-87
2023/10/02 09:04:35;;;;;;;29.33;12.95;;;18.20;84.50;;;;;;4952531;28;20051;-91
2023/10/02 09:07:14;;;;;;;25.83;12.25;;;18.30;84.40;;;;;;4960696;28;20501;-89
2023/10/02 09:09:47;;;;;;;26.13;12.60;;;18.30;84.20;;;;;;4964342;28;20066;-90
2023/10/02 09:12:23;;;;;;;29.63;12.98;;;18.40;84.30;;;;;;4954990;28;20310;-91
2023/10/02 09:14:54;;;;;;;28.77;13.40;;;18.40;84.30;;;;;;4973943;28;20055;-91
2023/10/02 09:17:22;;;;;;;31.83;14.88;;;18.40;84.20;;;;;;4980213;28;21040;-90
2023/10/02 09:20:00;;;;;;;31.67;14.57;;;18.50;84.20;;;;;;4980041;28;20051;-91
2023/10/02 09:22:28;;;;;;;33.53;15.33;;;18.50;84.10;;;;;;4975120;28;20046;-91
2023/10/02 09:25:09;;;;;;;35.80;14.73;;;18.60;84.20;;;;;;4961637;28;20310;-91
2023/10/02 09:27:49;;;;;;;33.13;15.57;;;18.60;84.10;;;;;;4980041;28;20802;-90
2023/10/02 09:30:23;;;;;;;37.30;16.85;;;18.70;84.10;;;;;;4964732;28;20078;-90
2023/10/02 09:32:52;;;;;;;36.00;16.95;;;18.70;84.20;;;;;;4964508;28;20638;-87
2023/10/02 09:35:29;;;;;;;28.67;15.13;;;18.80;84.00;;;;;;4962326;28;20128;-86
2023/10/02 09:38:03;;;;;;;34.95;15.98;;;18.80;83.90;;;;;;4961380;28;20279;-90
2023/10/02 09:40:53;;;;;;;32.80;15.50;;;18.90;83.80;;;;;;4987103;28;20047;-89
2023/10/02 09:43:25;;;;;;;35.40;15.27;;;18.90;83.70;;;;;;4950905;28;20051;-88
2023/10/02 09:45:55;;;;;;;34.33;15.07;;;18.90;83.70;;;;;;4968729;28;20954;-88
2023/10/02 09:51:26;;;;;;;32.65;15.70;;;19.00;83.70;;;;;;4960450;28;20266;-89
2023/10/02 09:54:09;;;;;;;33.90;14.30;;;19.00;83.60;;;;;;4969137;28;20058;-90
2023/10/02 09:56:52;;;;;;;29.90;14.50;;;19.00;83.50;;;;;;4976762;28;20165;-90
2023/10/02 09:59:23;;;;;;;32.72;14.98;;;19.10;83.50;;;;;;4977799;28;20130;-88
2023/10/02 10:05:45;;;;;;;32.63;14.25;;;19.10;83.50;;;;;;4970408;28;20287;-91
2023/10/02 10:08:33;;;;;;;33.40;13.73;;;19.10;83.40;;;;;;4977118;28;20055;-91
2023/10/02 10:11:14;;;;;;;33.15;14.60;;;19.10;83.40;;;;;;4975314;28;20058;-91
2023/10/02 10:13:46;;;;;;;34.67;15.85;;;19.20;83.60;;;;;;4978168;28;20065;-88
2023/10/02 10:16:38;;;;;;;34.33;15.47;;;19.20;83.60;;;;;;4973536;28;20529;-89
2023/10/02 10:19:27;;;;;;;32.78;14.75;;;19.30;83.60;;;;;;4974792;28;20274;-90
2023/10/02 10:21:57;;;;;;;35.88;16.05;;;19.30;83.50;;;;;;4973679;28;20051;-89
2023/10/02 10:24:57;;;;;;;43.10;19.15;;;19.30;83.50;;;;;;4947420;28;20498;-88
2023/10/02 10:28:00;;;;;;;39.35;17.77;;;19.40;83.30;;;;;;4965138;28;20102;-88
2023/10/02 10:30:45;;;;;;;39.17;17.00;;;19.40;83.00;;;;;;4950419;28;20052;-89
2023/10/02 10:33:45;;;;;;;40.15;18.38;;;19.40;83.10;;;;;;4929053;28;20261;-90
2023/10/02 10:36:36;;;;;;;38.78;17.67;;;19.40;83.30;;;;;;4963536;28;20097;-89
2023/10/02 10:39:31;;;;;;;43.25;17.75;;;19.50;83.40;;;;;;4974796;28;20130;-87
2023/10/02 10:42:03;;;;;;;37.67;17.25;;;19.50;83.30;;;;;;4967662;28;20142;-89
2023/10/02 10:44:35;;;;;;;40.50;17.77;;;19.50;83.40;;;;;;4976952;28;20498;-89
2023/10/02 10:47:03;;;;;;;38.30;16.85;;;19.50;83.50;;;;;;4954363;28;20255;-89
2023/10/02 10:50:11;;;;;;;40.45;17.75;;;19.50;83.50;;;;;;4954608;28;20043;-88
2023/10/02 10:52:44;;;;;;;34.67;16.60;;;19.60;83.70;;;;;;4987226;28;20127;-88
2023/10/02 10:55:33;;;;;;;34.92;15.70;;;19.70;83.70;;;;;;4965344;28;20074;-87
2023/10/02 10:58:02;;;;;;;31.93;16.00;;;19.70;83.60;;;;;;4977539;28;20058;-91
2023/10/02 11:00:31;;;;;;;30.98;14.73;;;19.80;83.00;;;;;;4975697;28;21001;-91
2023/10/02 11:03:14;;;;;;;38.13;18.42;;;19.90;83.20;;;;;;4978440;28;20054;-91
2023/10/02 11:05:48;;;;;;;33.92;16.75;;;19.90;83.20;;;;;;4961135;28;20542;-91
2023/10/02 11:08:25;;;;;;;33.83;17.30;;;19.90;83.20;;;;;;4983582;28;20055;-90
2023/10/02 11:11:03;;;;;;;36.70;17.57;;;20.00;82.90;;;;;;4986301;28;20069;-90
2023/10/02 11:13:50;;;;;;;35.35;17.42;;;20.00;82.60;;;;;;4990108;28;20287;-88
2023/10/02 11:16:30;;;;;;;31.90;16.42;;;20.00;82.50;;;;;;4972307;28;20133;-88
2023/10/02 11:19:34;;;;;;;35.97;16.65;;;20.10;82.30;;;;;;4973081;28;20063;-89
2023/10/02 11:22:14;;;;;;;36.08;17.02;;;20.10;82.40;;;;;;4971807;28;20051;-88
2023/10/02 11:24:42;;;;;;;30.57;16.27;;;20.10;82.40;;;;;;4955779;28;20145;-88
2023/10/02 11:27:14;;;;;;;31.00;16.35;;;20.20;82.30;;;;;;4953494;28;20275;-87
2023/10/02 11:29:45;;;;;;;35.05;17.13;;;20.20;82.20;;;;;;4952665;28;20215;-88
2023/10/02 11:32:23;;;;;;;33.20;16.27;;;20.30;82.20;;;;;;4956594;28;20600;-88
2023/10/02 11:34:51;;;;;;;31.95;16.40;;;20.30;82.10;;;;;;4971887;28;20047;-90
2023/10/02 11:37:23;;;;;;;31.17;16.27;;;20.30;81.70;;;;;;4969318;28;20544;-89
2023/10/02 11:39:51;;;;;;;32.53;16.67;;;20.30;81.60;;;;;;4948726;28;20279;-90
2023/10/02 11:42:20;;;;;;;33.05;15.82;;;20.30;81.60;;;;;;4962582;28;20055;-89
2023/10/02 11:44:47;;;;;;;29.60;15.30;;;20.40;81.60;;;;;;4961233;28;20055;-89
2023/10/02 11:47:19;;;;;;;31.48;16.60;;;20.50;81.50;;;;;;4966470;28;20148;-89
2023/10/02 11:49:46;;;;;;;29.30;14.23;;;20.50;81.70;;;;;;4966711;28;20514;-90
2023/10/02 11:52:15;;;;;;;27.42;14.52;;;20.50;81.70;;;;;;4966847;28;20342;-89
2023/10/02 11:54:43;;;;;;;31.20;15.20;;;20.50;81.80;;;;;;4962931;28;20051;-90
2023/10/02 11:57:12;;;;;;;27.83;14.10;;;20.50;81.70;;;;;;4969825;28;20094;-90
2023/10/02 11:59:47;;;;;;;27.35;13.43;;;20.50;81.80;;;;;;4972309;28;20516;-89
2023/10/02 12:02:17;;;;;;;29.47;14.70;;;20.60;81.90;;;;;;4988548;28;20069;-90
2023/10/02 12:04:44;;;;;;;26.80;12.80;;;20.60;81.90;;;;;;4953447;28;20286;-89
2023/10/02 12:07:12;;;;;;;26.73;12.15;;;20.60;81.90;;;;;;4971464;28;20142;-89
2023/10/02 12:09:39;;;;;;;27.95;12.10;;;20.70;81.50;;;;;;4955410;28;20050;-90
2023/10/02 12:12:11;;;;;;;29.48;13.50;;;20.70;81.30;;;;;;4952366;28;20055;-90
2023/10/02 12:14:40;;;;;;;31.90;12.97;;;20.70;80.70;;;;;;4967987;28;20063;-90
2023/10/02 12:17:11;;;;;;;25.20;12.57;;;20.70;80.70;;;;;;4968659;28;20281;-89
2023/10/02 12:19:39;;;;;;;28.15;12.45;;;20.80;80.90;;;;;;4937713;28;20063;-90
2023/10/02 12:22:08;;;;;;;26.90;12.65;;;20.80;80.90;;;;;;4977209;28;20557;-90
2023/10/02 12:24:36;;;;;;;20.42;10.73;;;20.90;80.40;;;;;;4957347;28;20155;-89
2023/10/02 12:27:04;;;;;;;23.77;11.93;;;20.90;80.10;;;;;;4961818;28;20055;-89
2023/10/02 12:29:32;;;;;;;26.00;12.18;;;20.90;80.00;;;;;;4951118;28;20281;-89
2023/10/02 12:32:00;;;;;;;27.92;11.77;;;20.90;79.90;;;;;;4962895;28;20057;-89
2023/10/02 12:34:28;;;;;;;24.40;10.77;;;21.00;79.70;;;;;;4947113;28;20055;-89
2023/10/02 12:36:57;;;;;;;22.60;9.40;;;21.00;79.60;;;;;;4980298;28;20087;-89
2023/10/02 12:39:28;;;;;;;23.83;10.20;;;21.00;79.50;;;;;;4956064;28;20134;-89
2023/10/02 12:41:56;;;;;;;23.42;9.23;;;21.00;78.80;;;;;;4963782;28;20272;-90
2023/10/02 12:44:22;;;;;;;20.08;7.78;;;21.10;78.40;;;;;;4944137;28;20146;-89
2023/10/02 12:46:51;;;;;;;18.95;8.25;;;21.10;78.70;;;;;;4961822;28;20093;-89
2023/10/02 12:49:20;;;;;;;19.48;8.20;;;21.10;78.10;;;;;;4969229;28;20065;-89
2023/10/02 12:51:50;;;;;;;18.90;8.27;;;21.10;77.90;;;;;;4949118;28;20131;-89
2023/10/02 12:54:19;;;;;;;18.10;9.02;;;21.10;77.90;;;;;;4971708;28;20389;-90
2023/10/02 12:56:46;;;;;;;19.92;8.52;;;21.10;77.90;;;;;;4971645;28;20109;-89
2023/10/02 12:59:14;;;;;;;22.30;9.18;;;21.20;77.80;;;;;;4979704;28;20134;-87
2023/10/02 13:01:41;;;;;;;20.05;9.40;;;21.20;77.70;;;;;;4959908;28;20051;-88
2023/10/02 13:04:12;;;;;;;19.90;9.33;;;21.30;77.70;;;;;;4970419;28;20062;-89
2023/10/02 13:06:46;;;;;;;18.70;8.55;;;21.30;77.60;;;;;;4951633;28;20262;-90
2023/10/02 13:09:15;;;;;;;22.98;10.15;;;21.30;77.80;;;;;;4976603;28;20755;-86
2023/10/02 13:11:44;;;;;;;19.95;9.20;;;21.40;77.50;;;;;;4981921;28;20059;-90
2023/10/02 13:14:12;;;;;;;20.83;8.80;;;21.40;77.10;;;;;;4949526;28;20645;-88
2023/10/02 13:16:41;;;;;;;18.97;8.37;;;21.40;77.20;;;;;;4968782;28;20051;-89
2023/10/02 13:19:12;;;;;;;20.90;9.00;;;21.40;77.30;;;;;;4967764;28;20854;-89
2023/10/02 13:21:44;;;;;;;18.70;8.90;;;21.50;77.00;;;;;;4973509;28;20530;-91
2023/10/02 13:24:14;;;;;;;19.88;9.85;;;21.50;76.70;;;;;;4973222;28;20114;-88